sensor_id;sensor_type;location;lat;lon;timestamp;temperature;humidity
50162;DHT22;36061;48.116;11.612;2023-10-19T00:02:07;8.70;99.90
50162;DHT22;36061;48.116;11.612;2023-10-19T00:04:36;8.70;99.90
50162;DHT22;36061;48.116;11.612;2023-10-19T00:07:02;8.70;99.90
50162;DHT22;36061;48.116;11.612;2023-10-19T00:09:31;8.60;99.90
50162;DHT22;36061;48.116;11.612;2023-10-19T00:12:04;8.60;99.90
50162;DHT22;36061;48.116;11.612;2023-10-19T00:14:32;8.60;99.90
50162;DHT22;36061;48.116;11.612;2023-10-19T00:16:58;8.60;99.90
50162;DHT22;36061;48.116;11.612;2023-10-19T00:19:32;8.60;99.90
50162;DHT22;36061;48.116;11.612;2023-10-19T00:22:06;8.60;99.90
50162;DHT22;36061;48.116;11.612;2023-10-19T00:24:41;8.60;99.90
50162;DHT22;36061;48.116;11.612;2023-10-19T00:27:10;8.60;99.90
50162;DHT22;36061;48.116;11.612;2023-10-19T00:29:43;8.60;99.90
50162;DHT22;36061;48.116;11.612;2023-10-19T00:32:16;8.60;99.90
50162;DHT22;36061;48.116;11.612;2023-10-19T00:34:44;8.60;99.90
50162;DHT22;36061;48.116;11.612;2023-10-19T00:37:19;8.60;99.90
50162;DHT22;36061;48.116;11.612;2023-10-19T00:39:53;8.60;99.90
50162;DHT22;36061;48.116;11.612;2023-10-19T00:42:22;8.60;99.90
50162;DHT22;36061;48.116;11.612;2023-10-19T00:44:53;8.60;99.90
50162;DHT22;36061;48.116;11.612;2023-10-19T00:47:30;8.60;99.90
50162;DHT22;36061;48.116;11.612;2023-10-19T00:50:07;8.60;99.90
50162;DHT22;36061;48.116;11.612;2023-10-19T00:52:42;8.60;99.90
50162;DHT22;36061;48.116;11.612;2023-10-19T00:55:16;8.60;99.90
50162;DHT22;36061;48.116;11.612;2023-10-19T00:57:45;8.60;99.90
50162;DHT22;36061;48.116;11.612;2023-10-19T01:00:15;8.60;99.90
50162;DHT22;36061;48.116;11.612;2023-10-19T01:02:57;8.60;99.90
50162;DHT22;36061;48.116;11.612;2023-10-19T01:05:26;8.60;99.90
50162;DHT22;36061;48.116;11.612;2023-10-19T01:07:59;8.60;99.90
50162;DHT22;36061;48.116;11.612;2023-10-19T01:10:28;8.60;99.90
50162;DHT22;36061;48.116;11.612;2023-10-19T01:12:57;8.60;99.90
50162;DHT22;36061;48.116;11.612;2023-10-19T01:15:26;8.60;99.90
50162;DHT22;36061;48.116;11.612;2023-10-19T01:17:58;8.60;99.90
50162;DHT22;36061;48.116;11.612;2023-10-19T01:20:28;8.60;99.90
50162;DHT22;36061;48.116;11.612;2023-10-19T01:23:15;8.60;99.90
50162;DHT22;36061;48.116;11.612;2023-10-19T01:25:53;8.60;99.90
50162;DHT22;36061;48.116;11.612;2023-10-19T01:28:33;8.60;99.90
50162;DHT22;36061;48.116;11.612;2023-10-19T01:31:10;8.60;99.90
50162;DHT22;36061;48.116;11.612;2023-10-19T01:33:43;8.60;99.90
50162;DHT22;36061;48.116;11.612;2023-10-19T01:36:12;8.60;99.90
50162;DHT22;36061;48.116;11.612;2023-10-19T01:38:41;8.60;99.90
50162;DHT22;36061;48.116;11.612;2023-10-19T01:41:09;8.60;99.90
50162;DHT22;36061;48.116;11.612;2023-10-19T01:43:45;8.50;99.90
50162;DHT22;36061;48.116;11.612;2023-10-19T01:46:15;8.60;99.90
50162;DHT22;36061;48.116;11.612;2023-10-19T01:48:49;8.60;99.90
50162;DHT22;36061;48.116;11.612;2023-10-19T01:51:20;8.50;99.90
50162;DHT22;36061;48.116;11.612;2023-10-19T01:53:48;8.50;99.90
50162;DHT22;36061;48.116;11.612;2023-10-19T01:56:16;8.50;99.90
50162;DHT22;36061;48.116;11.612;2023-10-19T01:58:44;8.60;99.90
50162;DHT22;36061;48.116;11.612;2023-10-19T02:01:13;8.60;99.90
50162;DHT22;36061;48.116;11.612;2023-10-19T02:03:47;8.50;99.90
50162;DHT22;36061;48.116;11.612;2023-10-19T02:06:19;8.60;99.90
50162;DHT22;36061;48.116;11.612;2023-10-19T02:08:48;8.60;99.90
50162;DHT22;36061;48.116;11.612;2023-10-19T02:11:19;8.60;99.90
50162;DHT22;36061;48.116;11.612;2023-10-19T02:13:48;8.60;99.90
50162;DHT22;36061;48.116;11.612;2023-10-19T02:16:15;8.70;99.90
50162;DHT22;36061;48.116;11.612;2023-10-19T02:18:46;8.70;99.90
50162;DHT22;36061;48.116;11.612;2023-10-19T02:21:12;8.70;99.90
50162;DHT22;36061;48.116;11.612;2023-10-19T02:23:40;8.60;99.90
50162;DHT22;36061;48.116;11.612;2023-10-19T02:26:09;8.60;99.90
50162;DHT22;36061;48.116;11.612;2023-10-19T02:28:39;8.60;99.90
50162;DHT22;36061;48.116;11.612;2023-10-19T02:31:06;8.60;99.90
50162;DHT22;36061;48.116;11.612;2023-10-19T02:33:44;8.70;99.90
50162;DHT22;36061;48.116;11.612;2023-10-19T02:36:12;8.70;99.90
50162;DHT22;36061;48.116;11.612;2023-10-19T02:38:42;8.70;99.90
50162;DHT22;36061;48.116;11.612;2023-10-19T02:41:16;8.70;99.90
50162;DHT22;36061;48.116;11.612;2023-10-19T02:43:45;8.70;99.90
50162;DHT22;36061;48.116;11.612;2023-10-19T02:46:13;8.70;99.90
50162;DHT22;36061;48.116;11.612;2023-10-19T02:48:42;8.80;99.90
50162;DHT22;36061;48.116;11.612;2023-10-19T02:51:11;8.80;99.90
50162;DHT22;36061;48.116;11.612;2023-10-19T02:53:39;8.80;99.90
50162;DHT22;36061;48.116;11.612;2023-10-19T02:56:10;8.80;99.90
50162;DHT22;36061;48.116;11.612;2023-10-19T02:58:41;8.80;99.90
50162;DHT22;36061;48.116;11.612;2023-10-19T03:01:13;8.80;99.90
50162;DHT22;36061;48.116;11.612;2023-10-19T03:03:43;8.80;99.90
50162;DHT22;36061;48.116;11.612;2023-10-19T03:06:10;8.80;99.90
50162;DHT22;36061;48.116;11.612;2023-10-19T03:08:37;8.80;99.90
50162;DHT22;36061;48.116;11.612;2023-10-19T03:11:04;8.80;99.90
50162;DHT22;36061;48.116;11.612;2023-10-19T03:13:30;8.80;99.90
50162;DHT22;36061;48.116;11.612;2023-10-19T03:16:01;8.80;99.90
50162;DHT22;36061;48.116;11.612;2023-10-19T03:18:32;8.80;99.90
50162;DHT22;36061;48.116;11.612;2023-10-19T03:21:01;8.80;99.90
50162;DHT22;36061;48.116;11.612;2023-10-19T03:23:27;8.80;99.90
50162;DHT22;36061;48.116;11.612;2023-10-19T03:25:56;8.80;99.90
50162;DHT22;36061;48.116;11.612;2023-10-19T03:28:37;8.80;99.90
50162;DHT22;36061;48.116;11.612;2023-10-19T03:31:08;8.80;99.90
50162;DHT22;36061;48.116;11.612;2023-10-19T03:33:39;8.80;99.90
50162;DHT22;36061;48.116;11.612;2023-10-19T03:36:07;8.80;99.90
50162;DHT22;36061;48.116;11.612;2023-10-19T03:38:39;8.80;99.90
50162;DHT22;36061;48.116;11.612;2023-10-19T03:41:07;8.80;99.90
50162;DHT22;36061;48.116;11.612;2023-10-19T03:43:35;8.80;99.90
50162;DHT22;36061;48.116;11.612;2023-10-19T03:46:07;8.80;99.90
50162;DHT22;36061;48.116;11.612;2023-10-19T03:48:48;8.80;99.90
50162;DHT22;36061;48.116;11.612;2023-10-19T03:51:15;8.80;99.90
50162;DHT22;36061;48.116;11.612;2023-10-19T03:53:44;8.90;99.90
50162;DHT22;36061;48.116;11.612;2023-10-19T03:56:15;8.80;99.90
50162;DHT22;36061;48.116;11.612;2023-10-19T03:58:44;8.90;99.90
50162;DHT22;36061;48.116;11.612;2023-10-19T04:01:17;8.80;99.90
50162;DHT22;36061;48.116;11.612;2023-10-19T04:03:46;8.90;99.90
50162;DHT22;36061;48.116;11.612;2023-10-19T04:06:15;8.80;99.90
50162;DHT22;36061;48.116;11.612;2023-10-19T04:08:42;8.80;99.90
50162;DHT22;36061;48.116;11.612;2023-10-19T04:11:11;8.80;99.90
50162;DHT22;36061;48.116;11.612;2023-10-19T04:13:51;8.80;99.90
50162;DHT22;36061;48.116;11.612;2023-10-19T04:16:23;8.80;99.90
50162;DHT22;36061;48.116;11.612;2023-10-19T04:18:50;8.80;99.90
50162;DHT22;36061;48.116;11.612;2023-10-19T04:21:17;8.80;99.90
50162;DHT22;36061;48.116;11.612;2023-10-19T04:23:44;8.80;99.90
50162;DHT22;36061;48.116;11.612;2023-10-19T04:26:12;8.80;99.90
50162;DHT22;36061;48.116;11.612;2023-10-19T04:28:43;8.90;99.90
50162;DHT22;36061;48.116;11.612;2023-10-19T04:31:15;8.90;99.90
50162;DHT22;36061;48.116;11.612;2023-10-19T04:33:45;8.90;99.90
50162;DHT22;36061;48.116;11.612;2023-10-19T04:36:16;8.90;99.90
50162;DHT22;36061;48.116;11.612;2023-10-19T04:38:47;9.00;99.90
50162;DHT22;36061;48.116;11.612;2023-10-19T04:41:14;9.00;99.90
50162;DHT22;36061;48.116;11.612;2023-10-19T04:43:41;9.00;99.90
50162;DHT22;36061;48.116;11.612;2023-10-19T04:46:15;9.00;99.90
50162;DHT22;36061;48.116;11.612;2023-10-19T04:48:46;9.00;99.90
50162;DHT22;36061;48.116;11.612;2023-10-19T04:51:13;9.00;99.90
50162;DHT22;36061;48.116;11.612;2023-10-19T04:53:40;9.00;99.90
50162;DHT22;36061;48.116;11.612;2023-10-19T04:56:08;9.00;99.90
50162;DHT22;36061;48.116;11.612;2023-10-19T04:58:38;9.00;99.90
50162;DHT22;36061;48.116;11.612;2023-10-19T05:01:05;9.00;99.90
50162;DHT22;36061;48.116;11.612;2023-10-19T05:03:36;9.00;99.90
50162;DHT22;36061;48.116;11.612;2023-10-19T05:06:04;9.00;99.90
50162;DHT22;36061;48.116;11.612;2023-10-19T05:08:32;9.00;99.90
50162;DHT22;36061;48.116;11.612;2023-10-19T05:10:59;9.00;99.90
50162;DHT22;36061;48.116;11.612;2023-10-19T05:13:27;9.00;99.90
50162;DHT22;36061;48.116;11.612;2023-10-19T05:15:54;9.00;99.90
50162;DHT22;36061;48.116;11.612;2023-10-19T05:18:22;9.00;99.90
50162;DHT22;36061;48.116;11.612;2023-10-19T05:20:50;9.10;99.90
50162;DHT22;36061;48.116;11.612;2023-10-19T05:23:23;9.00;99.90
50162;DHT22;36061;48.116;11.612;2023-10-19T05:25:52;9.10;99.90
50162;DHT22;36061;48.116;11.612;2023-10-19T05:28:19;9.10;99.90
50162;DHT22;36061;48.116;11.612;2023-10-19T05:30:48;9.10;99.90
50162;DHT22;36061;48.116;11.612;2023-10-19T05:33:16;9.10;99.90
50162;DHT22;36061;48.116;11.612;2023-10-19T05:35:47;9.10;99.90
50162;DHT22;36061;48.116;11.612;2023-10-19T05:38:14;9.10;99.90
50162;DHT22;36061;48.116;11.612;2023-10-19T05:40:43;9.10;99.90
50162;DHT22;36061;48.116;11.612;2023-10-19T05:43:11;9.10;99.90
50162;DHT22;36061;48.116;11.612;2023-10-19T05:45:38;9.10;99.90
50162;DHT22;36061;48.116;11.612;2023-10-19T05:48:06;9.10;99.90
50162;DHT22;36061;48.116;11.612;2023-10-19T05:50:34;9.20;99.90
50162;DHT22;36061;48.116;11.612;2023-10-19T05:53:01;9.20;99.90
50162;DHT22;36061;48.116;11.612;2023-10-19T05:55:29;9.20;99.90
50162;DHT22;36061;48.116;11.612;2023-10-19T05:57:59;9.20;99.90
50162;DHT22;36061;48.116;11.612;2023-10-19T06:00:26;9.20;99.90
50162;DHT22;36061;48.116;11.612;2023-10-19T06:02:54;9.30;99.90
50162;DHT22;36061;48.116;11.612;2023-10-19T06:05:21;9.20;99.90
50162;DHT22;36061;48.116;11.612;2023-10-19T06:07:49;9.30;99.90
50162;DHT22;36061;48.116;11.612;2023-10-19T06:10:18;9.30;99.90
50162;DHT22;36061;48.116;11.612;2023-10-19T06:12:47;9.30;99.90
50162;DHT22;36061;48.116;11.612;2023-10-19T06:15:19;9.40;99.90
50162;DHT22;36061;48.116;11.612;2023-10-19T06:17:47;9.40;99.90
50162;DHT22;36061;48.116;11.612;2023-10-19T06:20:15;9.40;99.90
50162;DHT22;36061;48.116;11.612;2023-10-19T06:22:53;9.40;99.90
50162;DHT22;36061;48.116;11.612;2023-10-19T06:25:23;9.40;99.90
50162;DHT22;36061;48.116;11.612;2023-10-19T06:27:51;9.40;99.90
50162;DHT22;36061;48.116;11.612;2023-10-19T06:30:25;9.40;99.90
50162;DHT22;36061;48.116;11.612;2023-10-19T06:32:54;9.40;99.90
50162;DHT22;36061;48.116;11.612;2023-10-19T06:35:22;9.40;99.90
50162;DHT22;36061;48.116;11.612;2023-10-19T06:37:50;9.40;99.90
50162;DHT22;36061;48.116;11.612;2023-10-19T06:40:17;9.50;99.90
50162;DHT22;36061;48.116;11.612;2023-10-19T06:42:44;9.50;99.90
50162;DHT22;36061;48.116;11.612;2023-10-19T06:45:13;9.50;99.90
50162;DHT22;36061;48.116;11.612;2023-10-19T06:47:43;9.60;99.90
50162;DHT22;36061;48.116;11.612;2023-10-19T06:50:12;9.60;99.90
50162;DHT22;36061;48.116;11.612;2023-10-19T06:52:41;9.60;99.90
50162;DHT22;36061;48.116;11.612;2023-10-19T06:55:10;9.60;99.90
50162;DHT22;36061;48.116;11.612;2023-10-19T06:57:41;9.70;99.90
50162;DHT22;36061;48.116;11.612;2023-10-19T07:00:10;9.70;99.90
50162;DHT22;36061;48.116;11.612;2023-10-19T07:02:43;9.70;99.90
50162;DHT22;36061;48.116;11.612;2023-10-19T07:05:10;9.80;99.90
50162;DHT22;36061;48.116;11.612;2023-10-19T07:07:40;9.80;99.90
50162;DHT22;36061;48.116;11.612;2023-10-19T07:10:09;9.90;99.90
50162;DHT22;36061;48.116;11.612;2023-10-19T07:12:39;9.90;99.90
50162;DHT22;36061;48.116;11.612;2023-10-19T07:15:07;10.00;99.90
50162;DHT22;36061;48.116;11.612;2023-10-19T07:17:40;10.00;99.90
50162;DHT22;36061;48.116;11.612;2023-10-19T07:20:10;10.10;99.90
50162;DHT22;36061;48.116;11.612;2023-10-19T07:22:51;10.10;99.90
50162;DHT22;36061;48.116;11.612;2023-10-19T07:25:18;10.20;99.90
50162;DHT22;36061;48.116;11.612;2023-10-19T07:27:47;10.30;99.90
50162;DHT22;36061;48.116;11.612;2023-10-19T07:30:15;10.30;99.90
50162;DHT22;36061;48.116;11.612;2023-10-19T07:32:50;10.40;99.90
50162;DHT22;36061;48.116;11.612;2023-10-19T07:35:22;10.50;99.90
50162;DHT22;36061;48.116;11.612;2023-10-19T07:37:52;10.60;99.90
50162;DHT22;36061;48.116;11.612;2023-10-19T07:40:19;10.70;99.90
50162;DHT22;36061;48.116;11.612;2023-10-19T07:42:47;10.80;99.90
50162;DHT22;36061;48.116;11.612;2023-10-19T07:45:15;10.90;99.90
50162;DHT22;36061;48.116;11.612;2023-10-19T07:47:43;10.90;99.90
50162;DHT22;36061;48.116;11.612;2023-10-19T07:50:11;11.00;99.90
50162;DHT22;36061;48.116;11.612;2023-10-19T07:52:43;11.10;99.90
50162;DHT22;36061;48.116;11.612;2023-10-19T07:55:11;11.20;99.90
50162;DHT22;36061;48.116;11.612;2023-10-19T07:57:38;11.30;99.90
50162;DHT22;36061;48.116;11.612;2023-10-19T08:00:07;11.30;99.90
50162;DHT22;36061;48.116;11.612;2023-10-19T08:02:35;11.40;99.90
50162;DHT22;36061;48.116;11.612;2023-10-19T08:05:04;11.50;99.90
50162;DHT22;36061;48.116;11.612;2023-10-19T08:07:32;11.50;99.90
50162;DHT22;36061;48.116;11.612;2023-10-19T08:10:04;11.60;99.90
50162;DHT22;36061;48.116;11.612;2023-10-19T08:12:32;11.60;99.90
50162;DHT22;36061;48.116;11.612;2023-10-19T08:14:59;11.60;99.90
50162;DHT22;36061;48.116;11.612;2023-10-19T08:17:27;11.70;99.90
50162;DHT22;36061;48.116;11.612;2023-10-19T08:19:54;11.80;99.90
50162;DHT22;36061;48.116;11.612;2023-10-19T08:22:22;11.80;99.90
50162;DHT22;36061;48.116;11.612;2023-10-19T08:24:50;11.90;99.90
50162;DHT22;36061;48.116;11.612;2023-10-19T08:27:19;12.00;99.90
50162;DHT22;36061;48.116;11.612;2023-10-19T08:29:47;12.10;99.90
50162;DHT22;36061;48.116;11.612;2023-10-19T08:32:14;12.20;99.90
50162;DHT22;36061;48.116;11.612;2023-10-19T08:34:42;12.30;99.90
50162;DHT22;36061;48.116;11.612;2023-10-19T08:37:09;12.40;99.90
50162;DHT22;36061;48.116;11.612;2023-10-19T08:39:36;12.50;99.90
50162;DHT22;36061;48.116;11.612;2023-10-19T08:42:04;12.60;99.90
50162;DHT22;36061;48.116;11.612;2023-10-19T08:44:33;12.70;99.90
50162;DHT22;36061;48.116;11.612;2023-10-19T08:47:01;12.80;99.90
50162;DHT22;36061;48.116;11.612;2023-10-19T08:49:31;12.90;99.90
50162;DHT22;36061;48.116;11.612;2023-10-19T08:51:59;13.00;99.90
50162;DHT22;36061;48.116;11.612;2023-10-19T08:54:30;13.10;99.90
50162;DHT22;36061;48.116;11.612;2023-10-19T08:57:00;13.10;99.90
50162;DHT22;36061;48.116;11.612;2023-10-19T08:59:28;13.20;99.90
50162;DHT22;36061;48.116;11.612;2023-10-19T09:02:01;13.30;99.90
50162;DHT22;36061;48.116;11.612;2023-10-19T09:04:29;13.30;99.90
50162;DHT22;36061;48.116;11.612;2023-10-19T09:06:56;13.40;99.90
50162;DHT22;36061;48.116;11.612;2023-10-19T09:09:23;13.40;99.90
50162;DHT22;36061;48.116;11.612;2023-10-19T09:11:52;13.50;99.90
50162;DHT22;36061;48.116;11.612;2023-10-19T09:14:31;13.50;99.90
50162;DHT22;36061;48.116;11.612;2023-10-19T09:17:01;13.60;99.90
50162;DHT22;36061;48.116;11.612;2023-10-19T09:19:37;13.60;99.90
50162;DHT22;36061;48.116;11.612;2023-10-19T09:22:05;13.70;99.90
50162;DHT22;36061;48.116;11.612;2023-10-19T09:24:43;13.70;99.90
50162;DHT22;36061;48.116;11.612;2023-10-19T09:27:11;13.80;99.90
50162;DHT22;36061;48.116;11.612;2023-10-19T09:29:39;13.80;99.90
50162;DHT22;36061;48.116;11.612;2023-10-19T09:32:09;13.80;99.90
50162;DHT22;36061;48.116;11.612;2023-10-19T09:34:39;13.90;99.90
50162;DHT22;36061;48.116;11.612;2023-10-19T09:37:10;13.90;99.90
50162;DHT22;36061;48.116;11.612;2023-10-19T09:39:38;13.90;99.90
50162;DHT22;36061;48.116;11.612;2023-10-19T09:42:10;13.90;99.90
50162;DHT22;36061;48.116;11.612;2023-10-19T09:44:41;13.90;99.90
50162;DHT22;36061;48.116;11.612;2023-10-19T09:47:11;13.90;99.90
50162;DHT22;36061;48.116;11.612;2023-10-19T09:49:41;13.90;99.90
50162;DHT22;36061;48.116;11.612;2023-10-19T09:52:10;13.90;99.90
50162;DHT22;36061;48.116;11.612;2023-10-19T09:54:52;13.90;99.90
50162;DHT22;36061;48.116;11.612;2023-10-19T09:57:27;14.00;99.90
50162;DHT22;36061;48.116;11.612;2023-10-19T10:00:00;14.10;99.90
50162;DHT22;36061;48.116;11.612;2023-10-19T10:02:42;14.10;99.90
50162;DHT22;36061;48.116;11.612;2023-10-19T10:05:44;14.30;99.90
50162;DHT22;36061;48.116;11.612;2023-10-19T10:08:30;14.40;99.90
50162;DHT22;36061;48.116;11.612;2023-10-19T10:10:58;14.50;99.90
50162;DHT22;36061;48.116;11.612;2023-10-19T10:13:37;14.60;99.90
50162;DHT22;36061;48.116;11.612;2023-10-19T10:16:06;14.70;99.90
50162;DHT22;36061;48.116;11.612;2023-10-19T10:18:36;14.80;99.90
50162;DHT22;36061;48.116;11.612;2023-10-19T10:21:07;14.90;99.90
50162;DHT22;36061;48.116;11.612;2023-10-19T10:23:40;15.00;99.90
50162;DHT22;36061;48.116;11.612;2023-10-19T10:26:09;15.00;99.90
50162;DHT22;36061;48.116;11.612;2023-10-19T10:28:36;15.00;99.90
50162;DHT22;36061;48.116;11.612;2023-10-19T10:31:11;15.00;99.90
50162;DHT22;36061;48.116;11.612;2023-10-19T10:33:45;15.00;99.90
50162;DHT22;36061;48.116;11.612;2023-10-19T10:36:14;15.10;99.90
50162;DHT22;36061;48.116;11.612;2023-10-19T10:38:43;15.10;99.90
50162;DHT22;36061;48.116;11.612;2023-10-19T10:41:10;15.10;99.90
50162;DHT22;36061;48.116;11.612;2023-10-19T10:43:53;15.20;99.90
50162;DHT22;36061;48.116;11.612;2023-10-19T10:46:22;15.20;99.90
50162;DHT22;36061;48.116;11.612;2023-10-19T10:48:50;15.30;99.90
50162;DHT22;36061;48.116;11.612;2023-10-19T10:51:19;15.30;99.90
50162;DHT22;36061;48.116;11.612;2023-10-19T10:53:50;15.30;99.90
50162;DHT22;36061;48.116;11.612;2023-10-19T10:56:19;15.30;99.90
50162;DHT22;36061;48.116;11.612;2023-10-19T10:58:47;15.30;99.90
50162;DHT22;36061;48.116;11.612;2023-10-19T11:01:24;15.40;99.90
50162;DHT22;36061;48.116;11.612;2023-10-19T11:04:07;15.40;99.90
50162;DHT22;36061;48.116;11.612;2023-10-19T11:06:47;15.60;99.90
50162;DHT22;36061;48.116;11.612;2023-10-19T11:09:15;15.60;99.90
50162;DHT22;36061;48.116;11.612;2023-10-19T11:11:45;15.70;99.90
50162;DHT22;36061;48.116;11.612;2023-10-19T11:14:12;15.80;99.90
50162;DHT22;36061;48.116;11.612;2023-10-19T11:16:39;15.90;99.90
50162;DHT22;36061;48.116;11.612;2023-10-19T11:19:10;16.00;99.90
50162;DHT22;36061;48.116;11.612;2023-10-19T11:21:37;16.00;99.90
50162;DHT22;36061;48.116;11.612;2023-10-19T11:24:06;16.10;99.90
50162;DHT22;36061;48.116;11.612;2023-10-19T11:26:40;16.20;99.90
50162;DHT22;36061;48.116;11.612;2023-10-19T11:29:07;16.20;99.90
50162;DHT22;36061;48.116;11.612;2023-10-19T11:31:36;16.20;99.90
50162;DHT22;36061;48.116;11.612;2023-10-19T11:34:05;16.30;99.90
50162;DHT22;36061;48.116;11.612;2023-10-19T11:36:36;16.30;99.90
50162;DHT22;36061;48.116;11.612;2023-10-19T11:39:04;16.30;99.90
50162;DHT22;36061;48.116;11.612;2023-10-19T11:41:37;16.20;99.90
50162;DHT22;36061;48.116;11.612;2023-10-19T11:44:04;16.20;99.90
50162;DHT22;36061;48.116;11.612;2023-10-19T11:46:32;16.20;99.90
50162;DHT22;36061;48.116;11.612;2023-10-19T11:48:59;16.20;99.90
50162;DHT22;36061;48.116;11.612;2023-10-19T11:51:27;16.20;99.90
50162;DHT22;36061;48.116;11.612;2023-10-19T11:53:55;16.10;99.90
50162;DHT22;36061;48.116;11.612;2023-10-19T11:56:22;16.10;99.90
50162;DHT22;36061;48.116;11.612;2023-10-19T11:58:51;16.10;99.90
50162;DHT22;36061;48.116;11.612;2023-10-19T12:01:18;16.10;99.90
50162;DHT22;36061;48.116;11.612;2023-10-19T12:03:47;16.10;99.90
50162;DHT22;36061;48.116;11.612;2023-10-19T12:06:14;16.10;99.90
50162;DHT22;36061;48.116;11.612;2023-10-19T12:08:45;16.10;99.90
50162;DHT22;36061;48.116;11.612;2023-10-19T12:11:14;16.10;99.90
50162;DHT22;36061;48.116;11.612;2023-10-19T12:13:43;16.10;99.90
50162;DHT22;36061;48.116;11.612;2023-10-19T12:16:10;16.20;99.90
50162;DHT22;36061;48.116;11.612;2023-10-19T12:18:38;16.20;99.90
50162;DHT22;36061;48.116;11.612;2023-10-19T12:21:06;16.30;99.90
50162;DHT22;36061;48.116;11.612;2023-10-19T12:23:39;16.40;99.90
50162;DHT22;36061;48.116;11.612;2023-10-19T12:26:06;16.50;99.90
50162;DHT22;36061;48.116;11.612;2023-10-19T12:28:38;16.40;99.90
50162;DHT22;36061;48.116;11.612;2023-10-19T12:31:06;16.40;99.90
50162;DHT22;36061;48.116;11.612;2023-10-19T12:33:34;16.30;99.90
50162;DHT22;36061;48.116;11.612;2023-10-19T12:36:02;16.30;99.90
50162;DHT22;36061;48.116;11.612;2023-10-19T12:38:48;16.20;99.90
50162;DHT22;36061;48.116;11.612;2023-10-19T12:41:16;16.20;99.90
50162;DHT22;36061;48.116;11.612;2023-10-19T12:43:45;16.30;99.90
50162;DHT22;36061;48.116;11.612;2023-10-19T12:46:13;16.30;99.90
50162;DHT22;36061;48.116;11.612;2023-10-19T12:48:43;16.50;99.90
50162;DHT22;36061;48.116;11.612;2023-10-19T12:51:10;16.50;99.90
50162;DHT22;36061;48.116;11.612;2023-10-19T12:53:39;16.60;99.90
50162;DHT22;36061;48.116;11.612;2023-10-19T12:56:06;16.60;99.90
50162;DHT22;36061;48.116;11.612;2023-10-19T12:58:37;16.70;99.90
50162;DHT22;36061;48.116;11.612;2023-10-19T13:01:05;16.70;99.90
50162;DHT22;36061;48.116;11.612;2023-10-19T13:03:37;16.70;99.90
50162;DHT22;36061;48.116;11.612;2023-10-19T13:06:06;16.70;99.90
50162;DHT22;36061;48.116;11.612;2023-10-19T13:08:33;16.70;99.90
50162;DHT22;36061;48.116;11.612;2023-10-19T13:11:00;16.70;99.90
50162;DHT22;36061;48.116;11.612;2023-10-19T13:13:28;16.80;99.90
50162;DHT22;36061;48.116;11.612;2023-10-19T13:15:55;16.80;99.90
50162;DHT22;36061;48.116;11.612;2023-10-19T13:18:23;16.80;99.90
50162;DHT22;36061;48.116;11.612;2023-10-19T13:20:53;16.80;99.90
50162;DHT22;36061;48.116;11.612;2023-10-19T13:23:21;16.80;99.90
50162;DHT22;36061;48.116;11.612;2023-10-19T13:25:48;16.70;99.90
50162;DHT22;36061;48.116;11.612;2023-10-19T13:28:20;16.70;99.90
50162;DHT22;36061;48.116;11.612;2023-10-19T13:30:49;16.70;99.90
50162;DHT22;36061;48.116;11.612;2023-10-19T13:33:17;16.70;99.90
50162;DHT22;36061;48.116;11.612;2023-10-19T13:35:46;16.70;99.90
50162;DHT22;36061;48.116;11.612;2023-10-19T13:38:16;16.70;99.90
50162;DHT22;36061;48.116;11.612;2023-10-19T13:40:44;16.70;99.90
50162;DHT22;36061;48.116;11.612;2023-10-19T13:43:12;16.60;99.90
50162;DHT22;36061;48.116;11.612;2023-10-19T13:45:59;16.70;99.90
50162;DHT22;36061;48.116;11.612;2023-10-19T13:48:27;16.60;99.90
50162;DHT22;36061;48.116;11.612;2023-10-19T13:50:56;16.60;99.90
50162;DHT22;36061;48.116;11.612;2023-10-19T13:53:31;16.60;99.90
50162;DHT22;36061;48.116;11.612;2023-10-19T13:55:59;16.50;99.90
50162;DHT22;36061;48.116;11.612;2023-10-19T13:58:26;16.50;99.90
50162;DHT22;36061;48.116;11.612;2023-10-19T14:00:54;16.40;99.90
50162;DHT22;36061;48.116;11.612;2023-10-19T14:03:21;16.40;99.90
50162;DHT22;36061;48.116;11.612;2023-10-19T14:05:48;16.30;99.90
50162;DHT22;36061;48.116;11.612;2023-10-19T14:08:17;16.20;99.90
50162;DHT22;36061;48.116;11.612;2023-10-19T14:10:46;16.20;99.90
50162;DHT22;36061;48.116;11.612;2023-10-19T14:13:14;16.10;99.90
50162;DHT22;36061;48.116;11.612;2023-10-19T14:15:41;16.00;99.90
50162;DHT22;36061;48.116;11.612;2023-10-19T14:18:09;16.00;99.90
50162;DHT22;36061;48.116;11.612;2023-10-19T14:20:37;16.00;99.90
50162;DHT22;36061;48.116;11.612;2023-10-19T14:23:06;15.90;99.90
50162;DHT22;36061;48.116;11.612;2023-10-19T14:25:38;15.90;99.90
50162;DHT22;36061;48.116;11.612;2023-10-19T14:28:06;15.80;99.90
50162;DHT22;36061;48.116;11.612;2023-10-19T14:30:33;15.80;99.90
50162;DHT22;36061;48.116;11.612;2023-10-19T14:33:01;15.80;99.90
50162;DHT22;36061;48.116;11.612;2023-10-19T14:35:28;15.90;99.90
50162;DHT22;36061;48.116;11.612;2023-10-19T14:37:56;16.00;99.90
50162;DHT22;36061;48.116;11.612;2023-10-19T14:40:26;16.00;99.90
50162;DHT22;36061;48.116;11.612;2023-10-19T14:42:56;16.00;99.90
50162;DHT22;36061;48.116;11.612;2023-10-19T14:45:25;16.00;99.90
50162;DHT22;36061;48.116;11.612;2023-10-19T14:47:56;16.00;99.90
50162;DHT22;36061;48.116;11.612;2023-10-19T14:50:24;16.00;99.90
50162;DHT22;36061;48.116;11.612;2023-10-19T14:52:53;16.00;99.90
50162;DHT22;36061;48.116;11.612;2023-10-19T14:55:22;15.90;99.90
50162;DHT22;36061;48.116;11.612;2023-10-19T14:57:51;15.90;99.90
50162;DHT22;36061;48.116;11.612;2023-10-19T15:00:21;15.80;99.90
50162;DHT22;36061;48.116;11.612;2023-10-19T15:02:52;15.80;99.90
50162;DHT22;36061;48.116;11.612;2023-10-19T15:05:22;15.70;99.90
50162;DHT22;36061;48.116;11.612;2023-10-19T15:07:51;15.60;99.90
50162;DHT22;36061;48.116;11.612;2023-10-19T15:10:21;15.60;99.90
50162;DHT22;36061;48.116;11.612;2023-10-19T15:12:49;15.60;99.90
50162;DHT22;36061;48.116;11.612;2023-10-19T15:15:17;15.50;99.90
50162;DHT22;36061;48.116;11.612;2023-10-19T15:17:46;15.40;99.90
50162;DHT22;36061;48.116;11.612;2023-10-19T15:20:14;15.40;99.90
50162;DHT22;36061;48.116;11.612;2023-10-19T15:22:42;15.40;99.90
50162;DHT22;36061;48.116;11.612;2023-10-19T15:25:11;15.30;99.90
50162;DHT22;36061;48.116;11.612;2023-10-19T15:27:40;15.30;99.90
50162;DHT22;36061;48.116;11.612;2023-10-19T15:30:09;15.30;99.90
50162;DHT22;36061;48.116;11.612;2023-10-19T15:32:38;15.30;99.90
50162;DHT22;36061;48.116;11.612;2023-10-19T15:35:09;15.20;99.90
50162;DHT22;36061;48.116;11.612;2023-10-19T15:37:37;15.20;99.90
50162;DHT22;36061;48.116;11.612;2023-10-19T15:40:05;15.10;99.90